createdAt,value
2023-03-30T00:00:13.850Z,1006.33
2023-03-30T00:01:13.832Z,1006.39
2023-03-30T00:02:13.823Z,1006.35
2023-03-30T00:03:13.967Z,1006.34
2023-03-30T00:04:14.038Z,1006.35
2023-03-30T00:05:13.970Z,1006.32
2023-03-30T00:06:13.779Z,1006.36
2023-03-30T00:07:13.758Z,1006.37
2023-03-30T00:08:13.748Z,1006.40
2023-03-30T00:09:13.782Z,1006.30
2023-03-30T00:10:13.742Z,1006.39
2023-03-30T00:11:13.766Z,1006.34
2023-03-30T00:12:13.700Z,1006.29
2023-03-30T00:13:13.698Z,1006.37
2023-03-30T00:14:13.683Z,1006.34
2023-03-30T00:15:13.689Z,1006.32
2023-03-30T00:16:13.753Z,1006.31
2023-03-30T00:17:13.646Z,1006.27
2023-03-30T00:18:13.631Z,1006.24
2023-03-30T00:19:13.628Z,1006.24
2023-03-30T00:20:13.673Z,1006.25
2023-03-30T00:21:13.601Z,1006.22
2023-03-30T00:22:13.588Z,1006.24
2023-03-30T00:23:13.587Z,1006.23
2023-03-30T00:24:13.564Z,1006.20
2023-03-30T00:25:13.556Z,1006.16
2023-03-30T00:26:13.545Z,1006.16
2023-03-30T00:27:13.535Z,1006.16
2023-03-30T00:28:13.532Z,1006.14
2023-03-30T00:29:13.512Z,1006.15
2023-03-30T00:30:13.502Z,1006.12
2023-03-30T00:31:13.508Z,1006.15
2023-03-30T00:32:13.510Z,1006.08
2023-03-30T00:33:13.462Z,1006.09
2023-03-30T00:34:13.446Z,1005.99
2023-03-30T00:35:13.445Z,1005.93
2023-03-30T00:36:13.475Z,1005.93
2023-03-30T00:37:13.412Z,1005.98
2023-03-30T00:38:13.408Z,1005.97
2023-03-30T00:39:13.393Z,1006.04
2023-03-30T00:40:13.384Z,1005.90
2023-03-30T00:41:13.374Z,1005.94
2023-03-30T00:42:13.356Z,1005.90
2023-03-30T00:43:13.348Z,1005.99
2023-03-30T00:44:13.338Z,1005.96
2023-03-30T00:45:13.321Z,1005.97
2023-03-30T00:46:13.342Z,1005.96
2023-03-30T00:47:13.333Z,1005.93
2023-03-30T00:48:13.286Z,1005.91
2023-03-30T00:49:13.273Z,1005.86
2023-03-30T00:50:13.288Z,1005.85
2023-03-30T00:51:13.254Z,1005.82
2023-03-30T00:52:13.248Z,1005.78
2023-03-30T00:53:13.225Z,1005.77
2023-03-30T00:54:13.218Z,1005.77
2023-03-30T00:55:13.210Z,1005.77
2023-03-30T00:56:13.192Z,1005.70
2023-03-30T00:57:13.196Z,1005.63
2023-03-30T00:58:13.184Z,1005.59
2023-03-30T00:59:13.165Z,1005.62
2023-03-30T01:00:13.157Z,1005.68
2023-03-30T01:01:13.171Z,1005.66
2023-03-30T01:02:13.239Z,1005.58
2023-03-30T01:03:13.375Z,1005.59
2023-03-30T01:04:13.101Z,1005.56
2023-03-30T01:05:13.094Z,1005.57
2023-03-30T01:06:13.084Z,1005.51
2023-03-30T01:07:13.076Z,1005.49
2023-03-30T01:08:13.064Z,1005.45
2023-03-30T01:09:13.051Z,1005.43
2023-03-30T01:10:13.039Z,1005.44
2023-03-30T01:11:13.026Z,1005.35
2023-03-30T01:12:13.011Z,1005.39
2023-03-30T01:13:12.997Z,1005.31
2023-03-30T01:14:12.985Z,1005.28
2023-03-30T01:15:12.975Z,1005.31
2023-03-30T01:16:13.030Z,1005.28
2023-03-30T01:17:12.959Z,1005.20
2023-03-30T01:18:12.951Z,1005.21
2023-03-30T01:19:12.960Z,1005.19
2023-03-30T01:20:13.160Z,1005.19
2023-03-30T01:21:12.905Z,1005.19
2023-03-30T01:22:12.904Z,1005.15
2023-03-30T01:23:12.890Z,1005.14
2023-03-30T01:24:12.872Z,1005.13
2023-03-30T01:25:12.861Z,1005.12
2023-03-30T01:26:12.853Z,1005.11
2023-03-30T01:27:12.880Z,1005.10
2023-03-30T01:28:12.844Z,1005.07
2023-03-30T01:29:12.814Z,1005.01
2023-03-30T01:30:12.853Z,1004.97
2023-03-30T01:31:12.844Z,1004.96
2023-03-30T01:32:12.787Z,1004.94
2023-03-30T01:33:12.778Z,1004.87
2023-03-30T01:34:12.758Z,1004.88
2023-03-30T01:35:12.838Z,1004.88
2023-03-30T01:36:12.811Z,1004.93
2023-03-30T01:37:12.723Z,1004.91
2023-03-30T01:38:12.726Z,1004.86
2023-03-30T01:39:12.704Z,1004.84
2023-03-30T01:40:12.689Z,1004.80
2023-03-30T01:41:12.688Z,1004.80
2023-03-30T01:42:12.681Z,1004.78
2023-03-30T01:43:12.670Z,1004.80
2023-03-30T01:44:12.645Z,1004.79
2023-03-30T01:45:12.631Z,1004.77
2023-03-30T01:46:12.644Z,1004.80
2023-03-30T01:47:12.612Z,1004.76
2023-03-30T01:48:12.605Z,1004.66
2023-03-30T01:49:12.589Z,1004.65
2023-03-30T01:50:12.579Z,1004.58
2023-03-30T01:51:12.591Z,1004.58
2023-03-30T01:52:12.555Z,1004.62
2023-03-30T01:53:12.557Z,1004.61
2023-03-30T01:54:12.535Z,1004.59
2023-03-30T01:55:12.515Z,1004.59
2023-03-30T01:56:12.510Z,1004.59
2023-03-30T01:57:12.543Z,1004.55
2023-03-30T01:58:12.481Z,1004.61
2023-03-30T01:59:12.474Z,1004.64
2023-03-30T02:00:12.463Z,1004.59
2023-03-30T02:01:12.450Z,1004.56
2023-03-30T02:02:12.541Z,1004.61
2023-03-30T02:03:12.491Z,1004.60
2023-03-30T02:04:12.423Z,1004.60
2023-03-30T02:05:12.418Z,1004.64
2023-03-30T02:06:12.390Z,1004.67
2023-03-30T02:07:12.405Z,1004.64
2023-03-30T02:08:12.372Z,1004.65
2023-03-30T02:09:12.364Z,1004.64
2023-03-30T02:10:12.346Z,1004.66
2023-03-30T02:11:12.333Z,1004.68
2023-03-30T02:12:12.327Z,1004.69
2023-03-30T02:13:12.313Z,1004.68
2023-03-30T02:14:12.299Z,1004.66
2023-03-30T02:15:12.296Z,1004.50
2023-03-30T02:16:12.285Z,1004.50
2023-03-30T02:17:12.284Z,1004.46
2023-03-30T02:18:12.255Z,1004.55
2023-03-30T02:19:12.261Z,1004.56
2023-03-30T02:20:12.242Z,1004.53
2023-03-30T02:21:12.219Z,1004.52
2023-03-30T02:22:12.212Z,1004.53
2023-03-30T02:23:12.231Z,1004.51
2023-03-30T02:24:12.187Z,1004.51
2023-03-30T02:25:12.182Z,1004.44
2023-03-30T02:26:12.174Z,1004.38
2023-03-30T02:27:12.154Z,1004.33
2023-03-30T02:28:12.139Z,1004.29
2023-03-30T02:29:12.138Z,1004.35
2023-03-30T02:30:12.118Z,1004.32
2023-03-30T02:31:12.152Z,1004.28
2023-03-30T02:32:12.105Z,1004.25
2023-03-30T02:33:12.119Z,1004.31
2023-03-30T02:34:12.079Z,1004.26
2023-03-30T02:35:12.073Z,1004.33
2023-03-30T02:36:12.082Z,1004.29
2023-03-30T02:37:12.037Z,1004.26
2023-03-30T02:38:12.032Z,1004.23
2023-03-30T02:39:14.467Z,1004.21
2023-03-30T02:40:12.003Z,1004.25
2023-03-30T02:41:11.995Z,1004.28
2023-03-30T02:42:11.981Z,1004.24
2023-03-30T02:43:11.982Z,1004.17
2023-03-30T02:44:11.960Z,1004.19
2023-03-30T02:45:11.960Z,1004.15
2023-03-30T02:46:11.967Z,1004.17
2023-03-30T02:47:11.925Z,1004.14
2023-03-30T02:48:11.920Z,1004.07
2023-03-30T02:49:11.901Z,1004.05
2023-03-30T02:50:11.900Z,1003.99
2023-03-30T02:51:11.887Z,1003.88
2023-03-30T02:52:11.876Z,1004.02
2023-03-30T02:53:11.856Z,1004.00
2023-03-30T02:54:11.846Z,1003.93
2023-03-30T02:55:11.859Z,1003.93
2023-03-30T02:56:11.829Z,1003.91
2023-03-30T02:57:11.961Z,1003.94
2023-03-30T02:58:11.802Z,1003.92
2023-03-30T02:59:11.791Z,1003.93
2023-03-30T03:00:11.779Z,1003.88
2023-03-30T03:01:11.802Z,1003.89
2023-03-30T03:02:11.809Z,1003.88
2023-03-30T03:03:11.795Z,1003.80
2023-03-30T03:04:11.749Z,1003.82
2023-03-30T03:05:11.738Z,1003.82
2023-03-30T03:06:11.713Z,1003.82
2023-03-30T03:07:11.700Z,1003.73
2023-03-30T03:08:11.687Z,1003.71
2023-03-30T03:09:11.692Z,1003.65
2023-03-30T03:10:11.674Z,1003.70
2023-03-30T03:11:11.676Z,1003.71
2023-03-30T03:12:11.650Z,1003.62
2023-03-30T03:13:11.641Z,1003.65
2023-03-30T03:14:11.620Z,1003.68
2023-03-30T03:15:11.618Z,1003.59
2023-03-30T03:16:11.604Z,1003.54
2023-03-30T03:17:11.630Z,1003.54
2023-03-30T03:18:11.578Z,1003.51
2023-03-30T03:19:11.573Z,1003.60
2023-03-30T03:20:11.562Z,1003.61
2023-03-30T03:21:11.563Z,1003.57
2023-03-30T03:22:11.537Z,1003.62
2023-03-30T03:23:11.520Z,1003.56
2023-03-30T03:24:11.507Z,1003.50
2023-03-30T03:25:11.493Z,1003.51
2023-03-30T03:26:11.508Z,1003.60
2023-03-30T03:27:11.507Z,1003.61
2023-03-30T03:28:11.457Z,1003.54
2023-03-30T03:29:11.449Z,1003.53
2023-03-30T03:30:11.440Z,1003.49
2023-03-30T03:31:11.516Z,1003.50
2023-03-30T03:32:11.419Z,1003.46
2023-03-30T03:33:11.414Z,1003.45
2023-03-30T03:34:11.393Z,1003.43
2023-03-30T03:35:11.387Z,1003.52
2023-03-30T03:36:11.379Z,1003.37
2023-03-30T03:37:11.360Z,1003.39
2023-03-30T03:38:11.343Z,1003.41
2023-03-30T03:39:11.343Z,1003.45
2023-03-30T03:40:11.332Z,1003.44
2023-03-30T03:41:11.318Z,1003.41
2023-03-30T03:42:11.307Z,1003.34
2023-03-30T03:43:11.324Z,1003.37
2023-03-30T03:44:11.276Z,1003.31
2023-03-30T03:45:11.271Z,1003.31
2023-03-30T03:46:11.306Z,1003.30
2023-03-30T03:47:11.246Z,1003.25
2023-03-30T03:48:11.233Z,1003.22
2023-03-30T03:49:11.225Z,1003.25
2023-03-30T03:50:11.209Z,1003.28
2023-03-30T03:51:11.281Z,1003.28
2023-03-30T03:52:11.200Z,1003.15
2023-03-30T03:53:11.181Z,1003.09
2023-03-30T03:54:11.162Z,1003.17
2023-03-30T03:55:11.151Z,1003.19
2023-03-30T03:56:11.141Z,1003.13
2023-03-30T03:57:11.172Z,1003.07
2023-03-30T03:58:11.116Z,1003.03
2023-03-30T03:59:11.135Z,1003.03
2023-03-30T04:00:11.094Z,1002.93
2023-03-30T04:01:11.135Z,1002.94
2023-03-30T04:02:11.108Z,1003.01
2023-03-30T04:03:11.129Z,1002.93
2023-03-30T04:04:11.077Z,1002.94
2023-03-30T04:05:11.073Z,1002.99
2023-03-30T04:06:11.029Z,1002.95
2023-03-30T04:07:11.016Z,1002.97
2023-03-30T04:08:11.163Z,1002.93
2023-03-30T04:09:10.999Z,1002.95
2023-03-30T04:10:10.983Z,1002.87
2023-03-30T04:11:10.971Z,1002.89
2023-03-30T04:12:10.962Z,1002.74
2023-03-30T04:13:10.951Z,1002.77
2023-03-30T04:14:10.941Z,1002.69
2023-03-30T04:15:10.954Z,1002.72
2023-03-30T04:16:10.966Z,1002.77
2023-03-30T04:17:10.903Z,1002.73
2023-03-30T04:18:10.910Z,1002.65
2023-03-30T04:19:10.888Z,1002.64
2023-03-30T04:20:10.873Z,1002.65
2023-03-30T04:21:10.861Z,1002.71
2023-03-30T04:22:10.847Z,1002.67
2023-03-30T04:23:10.842Z,1002.64
2023-03-30T04:24:10.825Z,1002.66
2023-03-30T04:25:10.813Z,1002.63
2023-03-30T04:26:10.808Z,1002.62
2023-03-30T04:27:10.790Z,1002.67
2023-03-30T04:28:10.780Z,1002.63
2023-03-30T04:29:10.768Z,1002.65
2023-03-30T04:30:10.777Z,1002.60
2023-03-30T04:31:10.826Z,1002.65
2023-03-30T04:32:10.783Z,1002.63
2023-03-30T04:33:10.808Z,1002.67
2023-03-30T04:34:10.719Z,1002.71
2023-03-30T04:35:12.700Z,1002.61
2023-03-30T04:36:12.718Z,1002.66
2023-03-30T04:37:12.680Z,1002.57
2023-03-30T04:38:10.683Z,1002.66
2023-03-30T04:39:10.660Z,1002.55
2023-03-30T04:40:10.648Z,1002.59
2023-03-30T04:41:10.665Z,1002.61
2023-03-30T04:42:10.628Z,1002.64
2023-03-30T04:43:10.621Z,1002.57
2023-03-30T04:44:10.626Z,1002.58
2023-03-30T04:45:10.587Z,1002.51
2023-03-30T04:46:10.614Z,1002.55
2023-03-30T04:47:10.595Z,1002.57
2023-03-30T04:48:10.632Z,1002.52
2023-03-30T04:49:10.547Z,1002.55
2023-03-30T04:50:10.614Z,1002.55
2023-03-30T04:51:10.528Z,1002.55
2023-03-30T04:52:10.525Z,1002.57
2023-03-30T04:53:10.513Z,1002.59
2023-03-30T04:54:10.504Z,1002.47
2023-03-30T04:55:10.476Z,1002.51
2023-03-30T04:56:12.473Z,1002.44
2023-03-30T04:57:12.494Z,1002.53
2023-03-30T04:58:10.445Z,1002.48
2023-03-30T04:59:10.435Z,1002.50
2023-03-30T05:00:10.463Z,1002.55
2023-03-30T05:01:10.461Z,1002.54
2023-03-30T05:02:10.418Z,1002.54
2023-03-30T05:03:10.591Z,1002.50
2023-03-30T05:04:10.386Z,1002.52
2023-03-30T05:05:10.377Z,1002.50
2023-03-30T05:06:10.354Z,1002.55
2023-03-30T05:07:10.345Z,1002.51
2023-03-30T05:08:12.330Z,1002.51
2023-03-30T05:09:10.324Z,1002.49
2023-03-30T05:10:10.325Z,1002.47
2023-03-30T05:11:10.308Z,1002.52
2023-03-30T05:12:10.315Z,1002.40
2023-03-30T05:13:10.572Z,1002.39
2023-03-30T05:14:10.267Z,1002.33
2023-03-30T05:15:10.266Z,1002.28
2023-03-30T05:16:10.245Z,1002.27
2023-03-30T05:17:10.337Z,1002.28
2023-03-30T05:18:10.295Z,1002.23
2023-03-30T05:19:10.258Z,1002.30
2023-03-30T05:20:10.200Z,1002.24
2023-03-30T05:21:10.195Z,1002.21
2023-03-30T05:22:10.178Z,1002.17
2023-03-30T05:23:10.168Z,1002.07
2023-03-30T05:24:10.152Z,1001.98
2023-03-30T05:25:10.176Z,1001.94
2023-03-30T05:26:10.206Z,1001.90
2023-03-30T05:27:10.126Z,1001.90
2023-03-30T05:28:10.115Z,1001.89
2023-03-30T05:29:10.119Z,1001.92
2023-03-30T05:30:10.088Z,1001.90
2023-03-30T05:31:10.097Z,1001.87
2023-03-30T05:32:10.078Z,1001.82
2023-03-30T05:33:10.199Z,1001.80
2023-03-30T05:34:10.048Z,1001.78
2023-03-30T05:35:10.085Z,1001.82
2023-03-30T05:36:10.078Z,1001.83
2023-03-30T05:37:10.009Z,1001.86
2023-03-30T05:38:09.992Z,1001.87
2023-03-30T05:39:09.989Z,1001.93
2023-03-30T05:40:09.972Z,1002.03
2023-03-30T05:41:09.966Z,1001.96
2023-03-30T05:42:09.956Z,1002.09
2023-03-30T05:43:09.954Z,1002.04
2023-03-30T05:44:09.929Z,1001.99
2023-03-30T05:45:09.916Z,1002.01
2023-03-30T05:46:10.004Z,1002.00
2023-03-30T05:47:09.892Z,1002.00
2023-03-30T05:48:09.884Z,1001.98
2023-03-30T05:49:09.871Z,1001.96
2023-03-30T05:50:09.869Z,1001.98
2023-03-30T05:51:09.878Z,1002.01
2023-03-30T05:52:09.844Z,1001.91
2023-03-30T05:53:09.830Z,1001.91
2023-03-30T05:54:09.812Z,1001.84
2023-03-30T05:55:09.804Z,1001.78
2023-03-30T05:56:09.793Z,1001.75
2023-03-30T05:57:09.790Z,1001.82
2023-03-30T05:58:09.771Z,1001.84
2023-03-30T05:59:09.771Z,1001.82
2023-03-30T06:00:09.754Z,1001.87
2023-03-30T06:01:09.745Z,1001.91
2023-03-30T06:02:10.913Z,1001.91
2023-03-30T06:03:09.790Z,1001.88
2023-03-30T06:04:09.769Z,1001.83
2023-03-30T06:05:09.689Z,1001.78
2023-03-30T06:06:09.702Z,1001.82
2023-03-30T06:07:09.694Z,1001.67
2023-03-30T06:08:09.671Z,1001.70
2023-03-30T06:09:09.650Z,1001.62
2023-03-30T06:10:09.637Z,1001.58
2023-03-30T06:11:09.632Z,1001.57
2023-03-30T06:12:09.698Z,1001.60
2023-03-30T06:13:09.611Z,1001.60
2023-03-30T06:14:09.586Z,1001.63
2023-03-30T06:15:09.590Z,1001.61
2023-03-30T06:16:09.638Z,1001.63
2023-03-30T06:17:09.553Z,1001.58
2023-03-30T06:18:09.600Z,1001.55
2023-03-30T06:19:09.536Z,1001.61
2023-03-30T06:20:09.527Z,1001.60
2023-03-30T06:21:09.513Z,1001.53
2023-03-30T06:22:09.522Z,1001.53
2023-03-30T06:23:09.518Z,1001.46
2023-03-30T06:24:09.484Z,1001.40
2023-03-30T06:25:09.472Z,1001.44
2023-03-30T06:26:09.466Z,1001.43
2023-03-30T06:27:09.446Z,1001.45
2023-03-30T06:28:09.430Z,1001.50
2023-03-30T06:29:09.421Z,1001.47
2023-03-30T06:30:09.402Z,1001.34
2023-03-30T06:31:09.495Z,1001.34
2023-03-30T06:32:09.629Z,1001.31
2023-03-30T06:33:09.422Z,1001.29
2023-03-30T06:34:09.359Z,1001.28
2023-03-30T06:35:09.349Z,1001.30
2023-03-30T06:36:09.363Z,1001.38
2023-03-30T06:37:09.343Z,1001.37
2023-03-30T06:38:09.313Z,1001.41
2023-03-30T06:39:09.339Z,1001.43
2023-03-30T06:40:09.295Z,1001.36
2023-03-30T06:41:09.281Z,1001.40
2023-03-30T06:42:09.268Z,1001.37
2023-03-30T06:43:09.365Z,1001.38
2023-03-30T06:44:09.246Z,1001.39
2023-03-30T06:45:09.517Z,1001.44
2023-03-30T06:46:09.297Z,1001.49
2023-03-30T06:47:09.213Z,1001.49
2023-03-30T06:48:09.306Z,1001.49
2023-03-30T06:49:09.212Z,1001.45
2023-03-30T06:50:09.183Z,1001.42
2023-03-30T06:51:09.163Z,1001.46
2023-03-30T06:52:09.281Z,1001.46
2023-03-30T06:53:09.221Z,1001.48
2023-03-30T06:54:09.129Z,1001.45
2023-03-30T06:55:09.151Z,1001.39
2023-03-30T06:56:09.106Z,1001.39
2023-03-30T06:57:09.130Z,1001.31
2023-03-30T06:58:09.088Z,1001.33
2023-03-30T06:59:09.072Z,1001.31
2023-03-30T07:00:09.060Z,1001.31
2023-03-30T07:01:09.096Z,1001.19
2023-03-30T07:02:09.045Z,1001.23
2023-03-30T07:03:09.101Z,1001.22
2023-03-30T07:04:09.074Z,1001.17
2023-03-30T07:05:09.006Z,1001.23
2023-03-30T07:06:08.988Z,1001.20
2023-03-30T07:07:08.994Z,1001.22
2023-03-30T07:08:08.966Z,1001.16
2023-03-30T07:09:08.962Z,1001.22
2023-03-30T07:10:08.955Z,1001.23
2023-03-30T07:11:08.967Z,1001.21
2023-03-30T07:12:08.929Z,1001.13
2023-03-30T07:13:08.913Z,1001.11
2023-03-30T07:14:08.939Z,1001.09
2023-03-30T07:15:09.185Z,1001.12
2023-03-30T07:16:08.877Z,1001.10
2023-03-30T07:17:08.938Z,1001.06
2023-03-30T07:18:08.893Z,1001.08
2023-03-30T07:19:09.001Z,1001.05
2023-03-30T07:20:08.833Z,1001.08
2023-03-30T07:21:08.822Z,1001.04
2023-03-30T07:22:08.809Z,1000.93
2023-03-30T07:23:08.815Z,1000.89
2023-03-30T07:24:08.786Z,1001.02
2023-03-30T07:25:08.777Z,1001.04
2023-03-30T07:26:08.764Z,1000.98
2023-03-30T07:27:08.786Z,1000.92
2023-03-30T07:28:08.749Z,1001.02
2023-03-30T07:29:08.731Z,1001.03
2023-03-30T07:30:20.755Z,1001.02
2023-03-30T07:31:08.962Z,1000.98
2023-03-30T07:32:08.791Z,1000.93
2023-03-30T07:33:08.783Z,1000.88
2023-03-30T07:34:08.678Z,1000.90
2023-03-30T07:35:08.665Z,1000.84
2023-03-30T07:36:08.819Z,1000.89
2023-03-30T07:37:08.640Z,1000.88
2023-03-30T07:38:08.635Z,1000.82
2023-03-30T07:39:08.627Z,1000.84
2023-03-30T07:40:08.626Z,1000.85
2023-03-30T07:41:08.601Z,1000.81
2023-03-30T07:42:08.582Z,1000.84
2023-03-30T07:43:08.600Z,1000.86
2023-03-30T07:44:08.565Z,1000.86
2023-03-30T07:45:08.547Z,1000.86
2023-03-30T07:46:08.578Z,1000.92
2023-03-30T07:47:08.525Z,1000.83
2023-03-30T07:48:08.598Z,1000.82
2023-03-30T07:49:08.516Z,1000.77
2023-03-30T07:50:08.491Z,1000.83
2023-03-30T07:51:08.479Z,1000.80
2023-03-30T07:52:08.473Z,1000.76
2023-03-30T07:53:08.455Z,1000.77
2023-03-30T07:54:08.455Z,1000.74
2023-03-30T07:55:08.437Z,1000.71
2023-03-30T07:56:08.425Z,1000.66
2023-03-30T07:57:08.450Z,1000.72
2023-03-30T07:58:08.401Z,1000.75
2023-03-30T07:59:08.423Z,1000.72
2023-03-30T08:00:08.383Z,1000.68
2023-03-30T08:01:08.372Z,1000.78
2023-03-30T08:02:08.373Z,1000.77
2023-03-30T08:03:08.465Z,1000.65
2023-03-30T08:04:08.499Z,1000.72
2023-03-30T08:05:08.418Z,1000.73
2023-03-30T08:06:08.312Z,1000.72
2023-03-30T08:07:08.305Z,1000.84
2023-03-30T08:08:08.291Z,1000.83
2023-03-30T08:09:08.276Z,1000.74
2023-03-30T08:10:08.284Z,1000.80
2023-03-30T08:11:08.263Z,1000.72
2023-03-30T08:12:08.241Z,1000.75
2023-03-30T08:13:08.235Z,1000.68
2023-03-30T08:14:08.223Z,1000.74
2023-03-30T08:15:08.237Z,1000.73
2023-03-30T08:16:08.250Z,1000.72
2023-03-30T08:17:08.189Z,1000.74
2023-03-30T08:18:08.441Z,1000.64
2023-03-30T08:19:08.177Z,1000.65
2023-03-30T08:20:08.156Z,1000.68
2023-03-30T08:21:08.151Z,1000.69
2023-03-30T08:22:08.147Z,1000.66
2023-03-30T08:23:08.116Z,1000.68
2023-03-30T08:24:08.110Z,1000.69
2023-03-30T08:25:08.136Z,1000.69
2023-03-30T08:26:08.097Z,1000.56
2023-03-30T08:27:08.133Z,1000.48
2023-03-30T08:28:08.073Z,1000.46
2023-03-30T08:29:08.053Z,1000.46
2023-03-30T08:30:08.048Z,1000.52
2023-03-30T08:31:08.292Z,1000.47
2023-03-30T08:32:08.283Z,1000.36
2023-03-30T08:33:08.078Z,1000.34
2023-03-30T08:34:07.998Z,1000.33
2023-03-30T08:35:07.986Z,1000.36
2023-03-30T08:36:08.011Z,1000.27
2023-03-30T08:37:07.961Z,1000.29
2023-03-30T08:38:07.951Z,1000.29
2023-03-30T08:39:07.940Z,1000.35
2023-03-30T08:40:07.933Z,1000.33
2023-03-30T08:41:07.930Z,1000.37
2023-03-30T08:42:07.945Z,1000.34
2023-03-30T08:43:07.905Z,1000.35
2023-03-30T08:44:07.881Z,1000.48
2023-03-30T08:45:07.898Z,1000.38
2023-03-30T08:46:07.984Z,1000.31
2023-03-30T08:47:07.888Z,1000.33
2023-03-30T08:48:07.898Z,1000.43
2023-03-30T08:49:07.827Z,1000.47
2023-03-30T08:50:07.865Z,1000.40
2023-03-30T08:51:07.837Z,1000.43
2023-03-30T08:52:07.817Z,1000.45
2023-03-30T08:53:07.862Z,1000.37
2023-03-30T08:54:07.791Z,1000.35
2023-03-30T08:55:07.805Z,1000.50
2023-03-30T08:56:07.789Z,1000.32
2023-03-30T08:57:07.792Z,1000.23
2023-03-30T08:58:07.768Z,1000.13
2023-03-30T08:59:07.758Z,1000.22
2023-03-30T09:00:07.702Z,1000.24
2023-03-30T09:01:08.051Z,1000.25
2023-03-30T09:02:07.724Z,1000.22
2023-03-30T09:03:07.735Z,1000.25
2023-03-30T09:04:07.663Z,1000.23
2023-03-30T09:05:07.783Z,1000.24
2023-03-30T09:06:07.641Z,1000.26
2023-03-30T09:07:07.631Z,1000.24
2023-03-30T09:08:07.626Z,1000.36
2023-03-30T09:09:07.603Z,1000.28
2023-03-30T09:10:07.602Z,1000.26
2023-03-30T09:11:07.612Z,1000.33
2023-03-30T09:12:07.582Z,1000.31
2023-03-30T09:13:07.581Z,1000.33
2023-03-30T09:14:07.562Z,1000.30
2023-03-30T09:15:07.535Z,1000.25
2023-03-30T09:16:07.638Z,1000.24
2023-03-30T09:17:07.526Z,1000.29
2023-03-30T09:18:07.542Z,1000.23
2023-03-30T09:19:07.521Z,1000.21
2023-03-30T09:20:07.486Z,1000.21
2023-03-30T09:21:07.710Z,1000.17
2023-03-30T09:22:07.472Z,1000.13
2023-03-30T09:23:07.456Z,1000.15
2023-03-30T09:24:07.449Z,1000.11
2023-03-30T09:25:07.431Z,1000.14
2023-03-30T09:26:07.436Z,1000.15
2023-03-30T09:27:07.410Z,1000.08
2023-03-30T09:28:07.402Z,1000.19
2023-03-30T09:29:07.381Z,1000.05
2023-03-30T09:30:07.371Z,1000.04
2023-03-30T09:31:07.632Z,1000.12
2023-03-30T09:32:07.365Z,1000.14
2023-03-30T09:33:07.370Z,1000.08
2023-03-30T09:34:09.551Z,1000.10
2023-03-30T09:35:07.360Z,1000.04
2023-03-30T09:36:07.527Z,1000.04
2023-03-30T09:37:07.303Z,999.99
2023-03-30T09:38:07.294Z,1000.09
2023-03-30T09:39:07.272Z,1000.14
2023-03-30T09:40:07.261Z,1000.10
2023-03-30T09:41:07.287Z,1000.16
2023-03-30T09:42:07.239Z,1000.22
2023-03-30T09:43:07.226Z,1000.20
2023-03-30T09:44:07.217Z,1000.14
2023-03-30T09:45:07.232Z,1000.23
2023-03-30T09:46:07.781Z,1000.21
2023-03-30T09:47:07.183Z,1000.19
2023-03-30T09:48:07.202Z,1000.23
2023-03-30T09:49:07.167Z,1000.26
2023-03-30T09:50:07.151Z,1000.23
2023-03-30T09:51:07.164Z,1000.27
2023-03-30T09:52:07.154Z,1000.20
2023-03-30T09:53:07.186Z,1000.21
2023-03-30T09:54:07.108Z,1000.21
2023-03-30T09:55:07.103Z,1000.25
2023-03-30T09:56:07.217Z,1000.21
2023-03-30T09:57:07.110Z,1000.15
2023-03-30T09:58:07.063Z,1000.18
2023-03-30T09:59:07.245Z,1000.18
2023-03-30T10:00:07.070Z,1000.20
2023-03-30T10:01:07.089Z,1000.31
2023-03-30T10:02:09.426Z,1000.28
2023-03-30T10:03:07.163Z,1000.27
2023-03-30T10:04:07.394Z,1000.32
2023-03-30T10:05:07.060Z,1000.28
2023-03-30T10:06:07.232Z,1000.25
2023-03-30T10:07:18.063Z,1000.24
2023-03-30T10:08:06.955Z,1000.24
2023-03-30T10:09:06.970Z,1000.40
2023-03-30T10:10:06.931Z,1000.34
2023-03-30T10:11:07.069Z,1000.33
2023-03-30T10:12:06.974Z,1000.37
2023-03-30T10:13:06.920Z,1000.38
2023-03-30T10:14:06.885Z,1000.34
2023-03-30T10:15:06.875Z,1000.32
2023-03-30T10:16:07.254Z,1000.38
2023-03-30T10:17:06.857Z,1000.40
2023-03-30T10:18:06.869Z,1000.38
2023-03-30T10:19:06.834Z,1000.35
2023-03-30T10:20:13.513Z,1000.33
2023-03-30T10:21:06.813Z,1000.35
2023-03-30T10:22:06.798Z,1000.33
2023-03-30T10:23:06.813Z,1000.29
2023-03-30T10:24:06.781Z,1000.40
2023-03-30T10:25:09.475Z,1000.40
2023-03-30T10:26:06.951Z,1000.37
2023-03-30T10:27:06.740Z,1000.33
2023-03-30T10:28:06.729Z,1000.43
2023-03-30T10:29:06.717Z,1000.33
2023-03-30T10:30:06.733Z,1000.43
2023-03-30T10:31:06.718Z,1000.45
2023-03-30T10:32:06.784Z,1000.32
2023-03-30T10:33:06.793Z,1000.33
2023-03-30T10:34:06.678Z,1000.42
2023-03-30T10:35:06.656Z,1000.39
2023-03-30T10:36:07.001Z,1000.43
2023-03-30T10:37:06.653Z,1000.36
2023-03-30T10:38:06.612Z,1000.34
2023-03-30T10:39:06.630Z,1000.30
2023-03-30T10:40:06.591Z,1000.27
2023-03-30T10:41:06.755Z,1000.25
2023-03-30T10:42:06.667Z,1000.27
2023-03-30T10:43:06.559Z,1000.29
2023-03-30T10:44:06.545Z,1000.23
2023-03-30T10:45:06.543Z,1000.25
2023-03-30T10:46:18.402Z,1000.18
2023-03-30T10:47:06.546Z,1000.18
2023-03-30T10:48:06.549Z,1000.23
2023-03-30T10:49:06.487Z,1000.32
2023-03-30T10:50:06.516Z,1000.21
2023-03-30T10:51:06.555Z,1000.27
2023-03-30T10:52:06.523Z,1000.15
2023-03-30T10:53:06.466Z,1000.16
2023-03-30T10:54:06.439Z,1000.06
2023-03-30T10:55:06.458Z,1000.09
2023-03-30T10:56:06.609Z,1000.14
2023-03-30T10:57:06.423Z,1000.05
2023-03-30T10:58:06.419Z,1000.13
2023-03-30T10:59:06.374Z,1000.02
2023-03-30T11:00:06.383Z,1000.02
2023-03-30T11:01:06.412Z,1000.19
2023-03-30T11:02:06.389Z,1000.14
2023-03-30T11:03:06.450Z,1000.07
2023-03-30T11:04:20.481Z,1000.14
2023-03-30T11:05:06.307Z,1000.19
2023-03-30T11:06:06.641Z,1000.10
2023-03-30T11:07:06.342Z,1000.15
2023-03-30T11:08:06.477Z,1000.11
2023-03-30T11:09:06.274Z,1000.16
2023-03-30T11:10:06.278Z,1000.12
2023-03-30T11:11:06.298Z,1000.08
2023-03-30T11:12:06.340Z,1000.11
2023-03-30T11:13:06.232Z,1000.12
2023-03-30T11:14:06.418Z,1000.16
2023-03-30T11:15:06.199Z,1000.02
2023-03-30T11:16:06.465Z,1000.04
2023-03-30T11:17:06.266Z,1000.06
2023-03-30T11:18:06.197Z,1000.04
2023-03-30T11:19:06.232Z,1000.10
2023-03-30T11:20:06.160Z,1000.01
2023-03-30T11:21:06.143Z,1000.00
2023-03-30T11:22:06.178Z,999.94
2023-03-30T11:23:06.115Z,1000.02
2023-03-30T11:24:06.103Z,999.98
2023-03-30T11:25:06.085Z,999.98
2023-03-30T11:26:06.296Z,1000.01
2023-03-30T11:27:06.099Z,999.95
2023-03-30T11:28:06.049Z,1000.00
2023-03-30T11:29:06.042Z,999.91
2023-03-30T11:30:06.030Z,1000.10
2023-03-30T11:31:06.020Z,1000.03
2023-03-30T11:32:06.073Z,1000.08
2023-03-30T11:33:06.069Z,1000.02
2023-03-30T11:34:05.985Z,1000.00
2023-03-30T11:35:05.984Z,999.96
2023-03-30T11:36:06.113Z,1000.04
2023-03-30T11:37:05.953Z,999.94
2023-03-30T11:38:05.953Z,999.89
2023-03-30T11:39:05.933Z,999.93
2023-03-30T11:40:05.929Z,999.92
2023-03-30T11:41:05.912Z,999.86
2023-03-30T11:42:05.923Z,999.86
2023-03-30T11:43:05.972Z,999.78
2023-03-30T11:44:05.876Z,999.79
2023-03-30T11:45:05.862Z,999.82
2023-03-30T11:46:06.288Z,999.75
2023-03-30T11:47:05.844Z,999.72
2023-03-30T11:48:05.877Z,999.65
2023-03-30T11:49:05.817Z,999.63
2023-03-30T11:50:05.807Z,999.68
2023-03-30T11:51:06.007Z,999.61
2023-03-30T11:52:05.924Z,999.62
2023-03-30T11:53:05.776Z,999.55
2023-03-30T11:54:05.769Z,999.49
2023-03-30T11:55:05.762Z,999.56
2023-03-30T11:56:06.003Z,999.58
2023-03-30T11:57:05.826Z,999.68
2023-03-30T11:58:06.901Z,999.60
2023-03-30T11:59:05.750Z,999.55
2023-03-30T12:00:05.702Z,999.54
2023-03-30T12:01:05.887Z,999.65
2023-03-30T12:02:05.689Z,999.56
2023-03-30T12:03:05.791Z,999.46
2023-03-30T12:04:05.706Z,999.40
2023-03-30T12:05:05.691Z,999.41
2023-03-30T12:06:05.830Z,999.40